sensor_id;sensor_type;location;lat;lon;timestamp;pressure;altitude;pressure_sealevel;temperature;humidity
69219;BME280;56232;53.384;-2.732;2023-04-26T00:00:03;101455.46;;;6.14;23.04
69219;BME280;56232;53.384;-2.732;2023-04-26T00:02:28;101454.74;;;6.19;22.90
69219;BME280;56232;53.384;-2.732;2023-04-26T00:04:54;101452.98;;;6.09;23.08
69219;BME280;56232;53.384;-2.732;2023-04-26T00:07:20;101452.96;;;6.53;23.20
69219;BME280;56232;53.384;-2.732;2023-04-26T00:09:47;101450.16;;;6.88;23.48
69219;BME280;56232;53.384;-2.732;2023-04-26T00:12:11;101446.56;;;6.37;23.29
69219;BME280;56232;53.384;-2.732;2023-04-26T00:14:37;101443.68;;;6.40;23.98
69219;BME280;56232;53.384;-2.732;2023-04-26T00:17:02;101444.71;;;6.86;23.59
69219;BME280;56232;53.384;-2.732;2023-04-26T00:19:27;101437.83;;;6.69;23.52
69219;BME280;56232;53.384;-2.732;2023-04-26T00:21:53;101440.82;;;6.18;23.37
69219;BME280;56232;53.384;-2.732;2023-04-26T00:24:19;101439.80;;;6.50;24.11
69219;BME280;56232;53.384;-2.732;2023-04-26T00:26:46;101441.40;;;6.57;23.89
69219;BME280;56232;53.384;-2.732;2023-04-26T00:29:10;101443.73;;;6.57;24.58
69219;BME280;56232;53.384;-2.732;2023-04-26T00:31:35;101442.28;;;6.06;25.04
69219;BME280;56232;53.384;-2.732;2023-04-26T00:34:00;101443.44;;;6.04;25.40
69219;BME280;56232;53.384;-2.732;2023-04-26T00:36:26;101443.13;;;6.56;25.32
69219;BME280;56232;53.384;-2.732;2023-04-26T00:38:52;101437.50;;;6.59;25.08
69219;BME280;56232;53.384;-2.732;2023-04-26T00:41:17;101433.01;;;6.74;24.80
69219;BME280;56232;53.384;-2.732;2023-04-26T00:43:43;101432.02;;;6.70;23.97
69219;BME280;56232;53.384;-2.732;2023-04-26T00:46:08;101428.66;;;6.05;25.00
69219;BME280;56232;53.384;-2.732;2023-04-26T00:48:35;101425.49;;;6.47;24.75
69219;BME280;56232;53.384;-2.732;2023-04-26T00:50:59;101420.90;;;6.38;24.90
69219;BME280;56232;53.384;-2.732;2023-04-26T00:53:25;101419.17;;;5.88;24.72
69219;BME280;56232;53.384;-2.732;2023-04-26T00:55:50;101416.70;;;6.39;24.71
69219;BME280;56232;53.384;-2.732;2023-04-26T00:58:15;101414.69;;;6.42;25.01
69219;BME280;56232;53.384;-2.732;2023-04-26T01:00:41;101416.89;;;6.46;25.21
69219;BME280;56232;53.384;-2.732;2023-04-26T01:03:06;101416.22;;;6.62;25.04
69219;BME280;56232;53.384;-2.732;2023-04-26T01:05:32;101419.13;;;6.85;24.77
69219;BME280;56232;53.384;-2.732;2023-04-26T01:07:57;101419.69;;;6.40;24.53
69219;BME280;56232;53.384;-2.732;2023-04-26T01:10:23;101417.16;;;5.86;24.40
69219;BME280;56232;53.384;-2.732;2023-04-26T01:12:49;101414.85;;;7.08;23.93
69219;BME280;56232;53.384;-2.732;2023-04-26T01:15:14;101409.28;;;6.77;23.59
69219;BME280;56232;53.384;-2.732;2023-04-26T01:17:40;101408.41;;;6.33;23.68
69219;BME280;56232;53.384;-2.732;2023-04-26T01:20:07;101409.04;;;6.41;23.74
69219;BME280;56232;53.384;-2.732;2023-04-26T01:22:31;101410.54;;;6.95;24.29
69219;BME280;56232;53.384;-2.732;2023-04-26T01:24:57;101410.50;;;6.46;24.47
69219;BME280;56232;53.384;-2.732;2023-04-26T01:27:22;101407.43;;;7.12;24.50
69219;BME280;56232;53.384;-2.732;2023-04-26T01:29:48;101406.78;;;6.54;24.88
69219;BME280;56232;53.384;-2.732;2023-04-26T01:32:13;101407.80;;;7.01;25.21
69219;BME280;56232;53.384;-2.732;2023-04-26T01:34:39;101405.04;;;6.45;24.72
69219;BME280;56232;53.384;-2.732;2023-04-26T01:37:04;101404.80;;;7.05;24.94
69219;BME280;56232;53.384;-2.732;2023-04-26T01:39:29;101407.46;;;6.06;25.03
69219;BME280;56232;53.384;-2.732;2023-04-26T01:41:56;101404.64;;;6.70;24.39
69219;BME280;56232;53.384;-2.732;2023-04-26T01:44:20;101401.82;;;7.43;24.28
69219;BME280;56232;53.384;-2.732;2023-04-26T01:46:46;101396.74;;;6.35;24.36
69219;BME280;56232;53.384;-2.732;2023-04-26T01:49:10;101392.94;;;7.45;24.20
69219;BME280;56232;53.384;-2.732;2023-04-26T01:51:36;101393.76;;;7.78;23.98
69219;BME280;56232;53.384;-2.732;2023-04-26T01:54:01;101393.19;;;7.01;24.30
69219;BME280;56232;53.384;-2.732;2023-04-26T01:56:27;101391.98;;;6.33;24.43
69219;BME280;56232;53.384;-2.732;2023-04-26T01:58:52;101388.01;;;6.25;24.62
69219;BME280;56232;53.384;-2.732;2023-04-26T02:01:17;101382.05;;;6.62;24.56
69219;BME280;56232;53.384;-2.732;2023-04-26T02:03:43;101383.29;;;6.90;24.28
69219;BME280;56232;53.384;-2.732;2023-04-26T02:06:09;101382.01;;;6.19;25.33
69219;BME280;56232;53.384;-2.732;2023-04-26T02:08:34;101382.38;;;6.63;24.49
69219;BME280;56232;53.384;-2.732;2023-04-26T02:11:00;101381.82;;;6.60;25.15
69219;BME280;56232;53.384;-2.732;2023-04-26T02:13:25;101379.15;;;6.65;25.11
69219;BME280;56232;53.384;-2.732;2023-04-26T02:15:51;101381.77;;;6.49;25.73
69219;BME280;56232;53.384;-2.732;2023-04-26T02:18:17;101382.43;;;6.35;26.61
69219;BME280;56232;53.384;-2.732;2023-04-26T02:20:43;101379.88;;;6.31;25.81
69219;BME280;56232;53.384;-2.732;2023-04-26T02:23:08;101379.32;;;6.33;25.65
69219;BME280;56232;53.384;-2.732;2023-04-26T02:25:33;101379.87;;;6.22;25.01
69219;BME280;56232;53.384;-2.732;2023-04-26T02:27:59;101380.38;;;6.32;25.05
69219;BME280;56232;53.384;-2.732;2023-04-26T02:30:24;101382.88;;;6.66;24.91
69219;BME280;56232;53.384;-2.732;2023-04-26T02:32:52;101380.17;;;6.73;24.90
69219;BME280;56232;53.384;-2.732;2023-04-26T02:35:15;101369.28;;;6.59;25.33
69219;BME280;56232;53.384;-2.732;2023-04-26T02:37:41;101361.93;;;6.76;25.21
69219;BME280;56232;53.384;-2.732;2023-04-26T02:40:07;101364.46;;;6.01;26.85
69219;BME280;56232;53.384;-2.732;2023-04-26T02:42:31;101362.72;;;6.05;26.00
69219;BME280;56232;53.384;-2.732;2023-04-26T02:44:57;101357.96;;;6.54;25.76
69219;BME280;56232;53.384;-2.732;2023-04-26T02:47:22;101358.17;;;6.12;26.20
69219;BME280;56232;53.384;-2.732;2023-04-26T02:49:48;101359.64;;;6.11;26.83
69219;BME280;56232;53.384;-2.732;2023-04-26T02:52:14;101360.62;;;5.63;26.77
69219;BME280;56232;53.384;-2.732;2023-04-26T02:54:40;101360.88;;;5.85;26.40
69219;BME280;56232;53.384;-2.732;2023-04-26T02:57:06;101355.28;;;6.69;25.83
69219;BME280;56232;53.384;-2.732;2023-04-26T02:59:31;101356.31;;;6.81;25.97
69219;BME280;56232;53.384;-2.732;2023-04-26T03:01:57;101357.37;;;6.30;26.57
69219;BME280;56232;53.384;-2.732;2023-04-26T03:04:22;101360.61;;;5.64;26.93
69219;BME280;56232;53.384;-2.732;2023-04-26T03:06:48;101361.76;;;6.18;26.93
69219;BME280;56232;53.384;-2.732;2023-04-26T03:09:13;101368.01;;;6.68;26.83
69219;BME280;56232;53.384;-2.732;2023-04-26T03:11:39;101372.04;;;6.30;26.24
69219;BME280;56232;53.384;-2.732;2023-04-26T03:14:05;101368.86;;;6.31;26.29
69219;BME280;56232;53.384;-2.732;2023-04-26T03:16:30;101360.72;;;6.85;27.01
69219;BME280;56232;53.384;-2.732;2023-04-26T03:18:56;101354.90;;;6.78;27.11
69219;BME280;56232;53.384;-2.732;2023-04-26T03:21:21;101354.93;;;6.94;26.52
69219;BME280;56232;53.384;-2.732;2023-04-26T03:23:47;101356.07;;;7.55;25.85
69219;BME280;56232;53.384;-2.732;2023-04-26T03:26:12;101356.14;;;6.12;25.73
69219;BME280;56232;53.384;-2.732;2023-04-26T03:28:37;101350.85;;;6.84;25.76
69219;BME280;56232;53.384;-2.732;2023-04-26T03:31:02;101344.62;;;7.29;26.17
69219;BME280;56232;53.384;-2.732;2023-04-26T03:33:29;101339.40;;;6.88;25.76
69219;BME280;56232;53.384;-2.732;2023-04-26T03:35:53;101336.73;;;6.44;26.00
69219;BME280;56232;53.384;-2.732;2023-04-26T03:38:19;101338.94;;;6.37;26.29
69219;BME280;56232;53.384;-2.732;2023-04-26T03:40:45;101338.40;;;7.46;26.57
69219;BME280;56232;53.384;-2.732;2023-04-26T03:43:09;101339.91;;;7.07;26.26
69219;BME280;56232;53.384;-2.732;2023-04-26T03:45:35;101342.94;;;7.04;26.71
69219;BME280;56232;53.384;-2.732;2023-04-26T03:48:00;101344.22;;;7.09;26.12
69219;BME280;56232;53.384;-2.732;2023-04-26T03:50:25;101342.94;;;7.04;26.44
69219;BME280;56232;53.384;-2.732;2023-04-26T03:52:50;101338.73;;;6.32;26.71
69219;BME280;56232;53.384;-2.732;2023-04-26T03:55:16;101337.17;;;6.91;26.37
69219;BME280;56232;53.384;-2.732;2023-04-26T03:57:41;101338.62;;;6.39;26.18
69219;BME280;56232;53.384;-2.732;2023-04-26T04:00:08;101336.34;;;6.31;26.69
69219;BME280;56232;53.384;-2.732;2023-04-26T04:02:32;101336.09;;;6.43;26.85
69219;BME280;56232;53.384;-2.732;2023-04-26T04:04:57;101333.03;;;7.11;26.43
69219;BME280;56232;53.384;-2.732;2023-04-26T04:07:22;101331.58;;;7.50;26.05
69219;BME280;56232;53.384;-2.732;2023-04-26T04:09:48;101329.76;;;6.24;25.93
69219;BME280;56232;53.384;-2.732;2023-04-26T04:12:13;101328.63;;;6.77;26.26
69219;BME280;56232;53.384;-2.732;2023-04-26T04:14:39;101329.04;;;6.79;26.53
69219;BME280;56232;53.384;-2.732;2023-04-26T04:17:04;101328.56;;;7.43;26.16
69219;BME280;56232;53.384;-2.732;2023-04-26T04:19:31;101323.08;;;6.94;26.32
69219;BME280;56232;53.384;-2.732;2023-04-26T04:21:56;101322.51;;;6.19;26.92
69219;BME280;56232;53.384;-2.732;2023-04-26T04:24:22;101322.97;;;6.10;26.49
69219;BME280;56232;53.384;-2.732;2023-04-26T04:26:48;101318.07;;;5.97;27.17
69219;BME280;56232;53.384;-2.732;2023-04-26T04:29:12;101318.37;;;6.37;27.31
69219;BME280;56232;53.384;-2.732;2023-04-26T04:31:38;101321.43;;;6.35;27.53
69219;BME280;56232;53.384;-2.732;2023-04-26T04:34:03;101323.35;;;6.25;27.80
69219;BME280;56232;53.384;-2.732;2023-04-26T04:36:29;101325.83;;;6.25;28.04
69219;BME280;56232;53.384;-2.732;2023-04-26T04:38:55;101327.21;;;6.18;28.19
69219;BME280;56232;53.384;-2.732;2023-04-26T04:41:20;101330.08;;;5.92;28.05
69219;BME280;56232;53.384;-2.732;2023-04-26T04:43:47;101335.95;;;6.75;28.87
69219;BME280;56232;53.384;-2.732;2023-04-26T04:46:12;101338.54;;;6.27;28.67
69219;BME280;56232;53.384;-2.732;2023-04-26T04:48:37;101339.16;;;5.88;28.70
69219;BME280;56232;53.384;-2.732;2023-04-26T04:51:02;101338.62;;;6.03;28.22
69219;BME280;56232;53.384;-2.732;2023-04-26T04:53:28;101336.17;;;6.65;28.26
69219;BME280;56232;53.384;-2.732;2023-04-26T04:55:53;101338.90;;;6.69;27.75
69219;BME280;56232;53.384;-2.732;2023-04-26T04:58:19;101340.36;;;6.66;28.22
69219;BME280;56232;53.384;-2.732;2023-04-26T05:00:45;101344.82;;;6.76;28.14
69219;BME280;56232;53.384;-2.732;2023-04-26T05:03:10;101347.42;;;6.45;28.44
69219;BME280;56232;53.384;-2.732;2023-04-26T05:05:36;101348.23;;;7.04;27.74
69219;BME280;56232;53.384;-2.732;2023-04-26T05:08:01;101347.34;;;5.97;27.63
69219;BME280;56232;53.384;-2.732;2023-04-26T05:10:26;101349.60;;;6.90;28.12
69219;BME280;56232;53.384;-2.732;2023-04-26T05:12:52;101345.76;;;6.36;28.21
69219;BME280;56232;53.384;-2.732;2023-04-26T05:15:17;101349.49;;;6.27;27.90
69219;BME280;56232;53.384;-2.732;2023-04-26T05:17:43;101348.41;;;6.35;27.59
69219;BME280;56232;53.384;-2.732;2023-04-26T05:20:08;101348.58;;;6.52;27.99
69219;BME280;56232;53.384;-2.732;2023-04-26T05:22:33;101356.69;;;7.06;28.17
69219;BME280;56232;53.384;-2.732;2023-04-26T05:24:58;101357.00;;;7.16;28.55
69219;BME280;56232;53.384;-2.732;2023-04-26T05:27:24;101360.50;;;6.06;28.79
69219;BME280;56232;53.384;-2.732;2023-04-26T05:29:50;101359.38;;;6.84;28.53
69219;BME280;56232;53.384;-2.732;2023-04-26T05:32:16;101358.15;;;7.31;28.82
69219;BME280;56232;53.384;-2.732;2023-04-26T05:34:41;101356.78;;;6.31;28.86
69219;BME280;56232;53.384;-2.732;2023-04-26T05:37:07;101354.44;;;6.46;29.14
69219;BME280;56232;53.384;-2.732;2023-04-26T05:39:32;101351.12;;;7.71;29.08
69219;BME280;56232;53.384;-2.732;2023-04-26T05:41:58;101348.17;;;6.59;28.79
69219;BME280;56232;53.384;-2.732;2023-04-26T05:44:23;101346.64;;;6.81;28.72
69219;BME280;56232;53.384;-2.732;2023-04-26T05:46:49;101345.76;;;6.99;28.96
69219;BME280;56232;53.384;-2.732;2023-04-26T05:49:15;101345.31;;;7.56;29.04
69219;BME280;56232;53.384;-2.732;2023-04-26T05:51:40;101348.18;;;7.22;28.92
69219;BME280;56232;53.384;-2.732;2023-04-26T05:54:05;101350.95;;;7.54;28.89
69219;BME280;56232;53.384;-2.732;2023-04-26T05:56:31;101354.80;;;7.35;28.66
69219;BME280;56232;53.384;-2.732;2023-04-26T05:58:57;101358.91;;;7.65;28.68
69219;BME280;56232;53.384;-2.732;2023-04-26T06:01:22;101360.69;;;8.64;27.98
69219;BME280;56232;53.384;-2.732;2023-04-26T06:03:49;101361.64;;;8.20;28.02
69219;BME280;56232;53.384;-2.732;2023-04-26T06:06:13;101365.70;;;8.08;28.18
69219;BME280;56232;53.384;-2.732;2023-04-26T06:08:38;101363.79;;;8.74;27.79
69219;BME280;56232;53.384;-2.732;2023-04-26T06:11:04;101363.38;;;7.71;28.13
69219;BME280;56232;53.384;-2.732;2023-04-26T06:13:30;101362.11;;;8.13;28.62
69219;BME280;56232;53.384;-2.732;2023-04-26T06:15:57;101362.99;;;8.09;28.48
69219;BME280;56232;53.384;-2.732;2023-04-26T06:18:21;101364.05;;;8.13;28.68
69219;BME280;56232;53.384;-2.732;2023-04-26T06:20:47;101365.00;;;8.20;28.18
69219;BME280;56232;53.384;-2.732;2023-04-26T06:23:11;101367.82;;;8.37;28.55
69219;BME280;56232;53.384;-2.732;2023-04-26T06:25:36;101368.28;;;8.23;28.45
69219;BME280;56232;53.384;-2.732;2023-04-26T06:28:01;101369.41;;;7.91;28.30
69219;BME280;56232;53.384;-2.732;2023-04-26T06:30:27;101372.28;;;8.76;27.96
69219;BME280;56232;53.384;-2.732;2023-04-26T06:32:52;101373.01;;;8.73;27.83
69219;BME280;56232;53.384;-2.732;2023-04-26T06:35:18;101371.74;;;8.83;27.37
69219;BME280;56232;53.384;-2.732;2023-04-26T06:37:43;101372.46;;;8.88;27.63
69219;BME280;56232;53.384;-2.732;2023-04-26T06:40:09;101370.51;;;9.09;27.66
69219;BME280;56232;53.384;-2.732;2023-04-26T06:42:34;101369.32;;;9.30;27.46
69219;BME280;56232;53.384;-2.732;2023-04-26T06:44:59;101368.68;;;9.28;27.62
69219;BME280;56232;53.384;-2.732;2023-04-26T06:47:25;101368.12;;;9.37;27.13
69219;BME280;56232;53.384;-2.732;2023-04-26T06:49:51;101368.44;;;8.77;26.69
69219;BME280;56232;53.384;-2.732;2023-04-26T06:52:16;101367.37;;;8.89;26.98
69219;BME280;56232;53.384;-2.732;2023-04-26T06:54:42;101365.83;;;9.24;26.49
69219;BME280;56232;53.384;-2.732;2023-04-26T06:57:07;101367.09;;;9.19;26.59
69219;BME280;56232;53.384;-2.732;2023-04-26T06:59:33;101370.93;;;9.25;26.92
69219;BME280;56232;53.384;-2.732;2023-04-26T07:01:58;101374.61;;;9.08;26.88
69219;BME280;56232;53.384;-2.732;2023-04-26T07:04:24;101375.41;;;9.17;27.09
69219;BME280;56232;53.384;-2.732;2023-04-26T07:06:49;101369.01;;;9.85;27.04
69219;BME280;56232;53.384;-2.732;2023-04-26T07:09:14;101367.71;;;10.42;26.59
69219;BME280;56232;53.384;-2.732;2023-04-26T07:11:40;101366.34;;;10.91;25.95
69219;BME280;56232;53.384;-2.732;2023-04-26T07:14:05;101365.91;;;10.79;25.73
69219;BME280;56232;53.384;-2.732;2023-04-26T07:16:31;101365.23;;;11.23;25.67
69219;BME280;56232;53.384;-2.732;2023-04-26T07:18:57;101363.83;;;11.85;25.38
69219;BME280;56232;53.384;-2.732;2023-04-26T07:21:22;101368.86;;;11.69;24.78
69219;BME280;56232;53.384;-2.732;2023-04-26T07:23:51;101364.86;;;11.86;24.49
69219;BME280;56232;53.384;-2.732;2023-04-26T07:26:13;101364.82;;;12.17;24.24
69219;BME280;56232;53.384;-2.732;2023-04-26T07:28:39;101362.72;;;11.57;24.26
69219;BME280;56232;53.384;-2.732;2023-04-26T07:31:04;101360.56;;;12.30;23.93
69219;BME280;56232;53.384;-2.732;2023-04-26T07:33:30;101363.71;;;13.97;23.75
69219;BME280;56232;53.384;-2.732;2023-04-26T07:35:56;101360.07;;;13.33;23.48
69219;BME280;56232;53.384;-2.732;2023-04-26T07:38:21;101359.33;;;13.52;23.43
69219;BME280;56232;53.384;-2.732;2023-04-26T07:40:48;101357.09;;;14.02;22.95
69219;BME280;56232;53.384;-2.732;2023-04-26T07:43:12;101359.38;;;14.37;22.72
69219;BME280;56232;53.384;-2.732;2023-04-26T07:45:37;101356.30;;;14.47;22.60
69219;BME280;56232;53.384;-2.732;2023-04-26T07:48:03;101356.12;;;14.03;22.44
69219;BME280;56232;53.384;-2.732;2023-04-26T07:50:28;101355.61;;;14.15;22.48
69219;BME280;56232;53.384;-2.732;2023-04-26T07:52:54;101357.39;;;14.42;22.26
69219;BME280;56232;53.384;-2.732;2023-04-26T07:55:19;101353.30;;;13.73;22.08
69219;BME280;56232;53.384;-2.732;2023-04-26T07:57:45;101352.11;;;14.20;21.85
69219;BME280;56232;53.384;-2.732;2023-04-26T08:00:11;101353.47;;;14.89;21.29
69219;BME280;56232;53.384;-2.732;2023-04-26T08:02:35;101356.70;;;15.42;21.04
69219;BME280;56232;53.384;-2.732;2023-04-26T08:05:01;101353.21;;;15.41;20.37
69219;BME280;56232;53.384;-2.732;2023-04-26T08:07:27;101355.52;;;15.66;20.49
69219;BME280;56232;53.384;-2.732;2023-04-26T08:09:52;101352.77;;;15.76;19.84
69219;BME280;56232;53.384;-2.732;2023-04-26T08:12:18;101357.31;;;16.97;19.41
69219;BME280;56232;53.384;-2.732;2023-04-26T08:14:43;101360.45;;;16.42;19.43
69219;BME280;56232;53.384;-2.732;2023-04-26T08:17:08;101357.54;;;16.49;19.41
69219;BME280;56232;53.384;-2.732;2023-04-26T08:19:34;101359.41;;;15.45;19.35
69219;BME280;56232;53.384;-2.732;2023-04-26T08:22:00;101353.09;;;17.00;19.07
69219;BME280;56232;53.384;-2.732;2023-04-26T08:24:25;101353.71;;;17.19;18.54
69219;BME280;56232;53.384;-2.732;2023-04-26T08:26:50;101353.98;;;17.98;18.24
69219;BME280;56232;53.384;-2.732;2023-04-26T08:29:16;101348.26;;;19.52;17.63
69219;BME280;56232;53.384;-2.732;2023-04-26T08:31:42;101350.82;;;20.86;17.30
69219;BME280;56232;53.384;-2.732;2023-04-26T08:34:07;101355.99;;;20.03;17.13
69219;BME280;56232;53.384;-2.732;2023-04-26T08:36:35;101352.43;;;19.54;16.50
69219;BME280;56232;53.384;-2.732;2023-04-26T08:38:58;101352.40;;;19.28;16.86
69219;BME280;56232;53.384;-2.732;2023-04-26T08:41:24;101354.44;;;19.94;16.85
69219;BME280;56232;53.384;-2.732;2023-04-26T08:43:50;101353.71;;;20.37;16.48
69219;BME280;56232;53.384;-2.732;2023-04-26T08:46:15;101354.06;;;18.96;16.40
69219;BME280;56232;53.384;-2.732;2023-04-26T08:48:39;101355.73;;;18.81;16.63
69219;BME280;56232;53.384;-2.732;2023-04-26T08:51:06;101355.96;;;19.08;16.76
69219;BME280;56232;53.384;-2.732;2023-04-26T08:53:30;101355.83;;;20.11;16.92
69219;BME280;56232;53.384;-2.732;2023-04-26T08:55:55;101356.64;;;18.67;16.94
69219;BME280;56232;53.384;-2.732;2023-04-26T08:58:21;101358.63;;;18.65;17.14
69219;BME280;56232;53.384;-2.732;2023-04-26T09:00:47;101360.51;;;18.80;17.29
69219;BME280;56232;53.384;-2.732;2023-04-26T09:03:11;101353.46;;;18.76;16.96
69219;BME280;56232;53.384;-2.732;2023-04-26T09:05:38;101354.50;;;19.58;17.00
69219;BME280;56232;53.384;-2.732;2023-04-26T09:08:03;101354.74;;;19.03;16.92
69219;BME280;56232;53.384;-2.732;2023-04-26T09:10:27;101358.25;;;20.46;16.64
69219;BME280;56232;53.384;-2.732;2023-04-26T09:12:53;101358.61;;;20.05;16.52
69219;BME280;56232;53.384;-2.732;2023-04-26T09:15:20;101360.32;;;19.64;16.23
69219;BME280;56232;53.384;-2.732;2023-04-26T09:17:44;101358.52;;;21.21;16.28
69219;BME280;56232;53.384;-2.732;2023-04-26T09:20:17;101362.85;;;20.43;15.98
69219;BME280;56232;53.384;-2.732;2023-04-26T09:22:36;101364.95;;;20.67;15.66
69219;BME280;56232;53.384;-2.732;2023-04-26T09:25:01;101364.31;;;21.19;15.40
69219;BME280;56232;53.384;-2.732;2023-04-26T09:27:32;101363.82;;;23.51;14.65
69219;BME280;56232;53.384;-2.732;2023-04-26T09:29:56;101359.02;;;24.72;13.75
69219;BME280;56232;53.384;-2.732;2023-04-26T09:32:16;101356.59;;;25.69;13.39
69219;BME280;56232;53.384;-2.732;2023-04-26T09:34:45;101358.55;;;26.98;12.82
69219;BME280;56232;53.384;-2.732;2023-04-26T09:37:10;101364.51;;;28.18;12.17
69219;BME280;56232;53.384;-2.732;2023-04-26T09:39:34;101359.74;;;28.02;11.89
69219;BME280;56232;53.384;-2.732;2023-04-26T09:41:58;101360.51;;;29.17;11.71
69219;BME280;56232;53.384;-2.732;2023-04-26T09:44:24;101363.23;;;29.49;11.23
69219;BME280;56232;53.384;-2.732;2023-04-26T09:46:57;101353.99;;;28.78;11.26
69219;BME280;56232;53.384;-2.732;2023-04-26T09:49:14;101361.10;;;27.15;11.68
69219;BME280;56232;53.384;-2.732;2023-04-26T09:51:41;101360.77;;;26.44;12.16
69219;BME280;56232;53.384;-2.732;2023-04-26T09:54:05;101359.11;;;25.90;12.15
69219;BME280;56232;53.384;-2.732;2023-04-26T09:56:30;101357.23;;;26.46;12.12
69219;BME280;56232;53.384;-2.732;2023-04-26T09:58:57;101353.40;;;27.12;11.65
69219;BME280;56232;53.384;-2.732;2023-04-26T10:01:21;101355.01;;;27.73;11.55
69219;BME280;56232;53.384;-2.732;2023-04-26T10:03:48;101357.01;;;27.59;11.72
69219;BME280;56232;53.384;-2.732;2023-04-26T10:06:12;101351.88;;;27.47;12.04
69219;BME280;56232;53.384;-2.732;2023-04-26T10:08:37;101347.14;;;26.46;12.02
69219;BME280;56232;53.384;-2.732;2023-04-26T10:11:03;101350.59;;;26.71;12.25
69219;BME280;56232;53.384;-2.732;2023-04-26T10:13:28;101346.69;;;27.50;11.96
69219;BME280;56232;53.384;-2.732;2023-04-26T10:15:53;101345.33;;;28.41;11.80
69219;BME280;56232;53.384;-2.732;2023-04-26T10:18:19;101340.68;;;28.60;11.58
69219;BME280;56232;53.384;-2.732;2023-04-26T10:20:49;101338.97;;;28.60;11.09
69219;BME280;56232;53.384;-2.732;2023-04-26T10:23:16;101336.18;;;28.78;11.23
69219;BME280;56232;53.384;-2.732;2023-04-26T10:25:37;101331.48;;;29.38;11.19
69219;BME280;56232;53.384;-2.732;2023-04-26T10:28:01;101330.22;;;28.37;11.41
69219;BME280;56232;53.384;-2.732;2023-04-26T10:30:26;101333.34;;;28.39;11.28
69219;BME280;56232;53.384;-2.732;2023-04-26T10:35:17;101325.11;;;27.94;11.98
69219;BME280;56232;53.384;-2.732;2023-04-26T10:42:33;101328.25;;;27.29;12.37
69219;BME280;56232;53.384;-2.732;2023-04-26T10:44:59;101320.23;;;27.12;11.61
69219;BME280;56232;53.384;-2.732;2023-04-26T10:47:27;101316.17;;;26.46;12.12
69219;BME280;56232;53.384;-2.732;2023-04-26T10:49:50;101318.58;;;25.16;13.85
69219;BME280;56232;53.384;-2.732;2023-04-26T10:52:17;101317.97;;;23.85;14.80
69219;BME280;56232;53.384;-2.732;2023-04-26T10:54:48;101320.87;;;22.75;15.87
69219;BME280;56232;53.384;-2.732;2023-04-26T10:57:07;101317.24;;;21.59;16.37
69219;BME280;56232;53.384;-2.732;2023-04-26T10:59:32;101311.62;;;21.58;17.56
69219;BME280;56232;53.384;-2.732;2023-04-26T11:01:59;101313.82;;;20.73;17.73
69219;BME280;56232;53.384;-2.732;2023-04-26T11:06:51;101307.83;;;20.44;17.44
69219;BME280;56232;53.384;-2.732;2023-04-26T11:11:49;101310.99;;;20.10;18.82
69219;BME280;56232;53.384;-2.732;2023-04-26T11:14:06;101311.41;;;20.06;18.79
69219;BME280;56232;53.384;-2.732;2023-04-26T11:16:31;101302.07;;;20.21;18.86
69219;BME280;56232;53.384;-2.732;2023-04-26T11:18:56;101305.07;;;20.06;17.69
69219;BME280;56232;53.384;-2.732;2023-04-26T11:21:22;101306.86;;;19.18;17.73
69219;BME280;56232;53.384;-2.732;2023-04-26T11:23:53;101300.24;;;19.12;17.35
69219;BME280;56232;53.384;-2.732;2023-04-26T11:26:13;101297.86;;;19.97;17.29
69219;BME280;56232;53.384;-2.732;2023-04-26T11:28:39;101295.79;;;19.34;17.28
69219;BME280;56232;53.384;-2.732;2023-04-26T11:31:05;101297.88;;;18.64;18.26
69219;BME280;56232;53.384;-2.732;2023-04-26T11:33:31;101294.27;;;19.45;17.11
69219;BME280;56232;53.384;-2.732;2023-04-26T11:35:57;101292.52;;;18.54;17.36
69219;BME280;56232;53.384;-2.732;2023-04-26T11:38:22;101294.68;;;19.42;17.90
69219;BME280;56232;53.384;-2.732;2023-04-26T11:40:52;101293.28;;;19.77;18.70
69219;BME280;56232;53.384;-2.732;2023-04-26T11:43:13;101294.67;;;19.79;18.08
69219;BME280;56232;53.384;-2.732;2023-04-26T11:45:38;101298.56;;;19.99;20.50
69219;BME280;56232;53.384;-2.732;2023-04-26T11:48:05;101297.86;;;19.56;20.18
69219;BME280;56232;53.384;-2.732;2023-04-26T11:50:30;101292.25;;;20.14;19.40
69219;BME280;56232;53.384;-2.732;2023-04-26T11:52:55;101294.60;;;20.69;19.81
69219;BME280;56232;53.384;-2.732;2023-04-26T11:55:23;101292.17;;;21.40;19.90
69219;BME280;56232;53.384;-2.732;2023-04-26T11:57:46;101288.18;;;21.23;17.06
69219;BME280;56232;53.384;-2.732;2023-04-26T12:00:13;101292.60;;;21.56;15.36
69219;BME280;56232;53.384;-2.732;2023-04-26T12:02:37;101289.31;;;20.69;15.82
69219;BME280;56232;53.384;-2.732;2023-04-26T12:05:02;101292.07;;;20.53;17.69
69219;BME280;56232;53.384;-2.732;2023-04-26T12:07:32;101290.37;;;20.56;19.22
69219;BME280;56232;53.384;-2.732;2023-04-26T12:09:54;101290.82;;;20.55;20.30
69219;BME280;56232;53.384;-2.732;2023-04-26T12:12:19;101294.34;;;21.32;20.33
69219;BME280;56232;53.384;-2.732;2023-04-26T12:14:46;101294.19;;;21.18;19.65
69219;BME280;56232;53.384;-2.732;2023-04-26T12:17:13;101292.26;;;21.54;18.73
69219;BME280;56232;53.384;-2.732;2023-04-26T12:19:37;101291.22;;;21.27;19.62
69219;BME280;56232;53.384;-2.732;2023-04-26T12:22:02;101290.99;;;21.53;18.03
69219;BME280;56232;53.384;-2.732;2023-04-26T12:24:29;101282.86;;;21.10;18.87
69219;BME280;56232;53.384;-2.732;2023-04-26T12:26:53;101290.46;;;21.73;19.56
69219;BME280;56232;53.384;-2.732;2023-04-26T12:29:18;101288.25;;;22.18;20.15
69219;BME280;56232;53.384;-2.732;2023-04-26T12:31:44;101290.53;;;22.91;20.44
69219;BME280;56232;53.384;-2.732;2023-04-26T12:34:09;101292.78;;;22.86;20.03
69219;BME280;56232;53.384;-2.732;2023-04-26T12:36:34;101289.91;;;22.82;19.92
69219;BME280;56232;53.384;-2.732;2023-04-26T12:39:00;101288.60;;;23.29;19.12
69219;BME280;56232;53.384;-2.732;2023-04-26T12:41:26;101290.82;;;23.21;19.25
69219;BME280;56232;53.384;-2.732;2023-04-26T12:43:51;101288.81;;;23.80;19.84
69219;BME280;56232;53.384;-2.732;2023-04-26T12:46:16;101287.46;;;23.35;20.10